Time;durP1;ratioP1;P1;durP2;ratioP2;P2;SDS_P1;SDS_P2;PMS_P1;PMS_P2;Temp;Humidity;BMP_temperature;BMP_pressure;BME280_temperature;BME280_humidity;BME280_pressure;Samples;Min_cycle;Max_cycle;Signal;HPM_P1;HPM_P2
2020/12/13 00:02:33;;;;;;;101.78;54.50;;;;;;;-0.42;88.31;101248.72;4948388;29;20039;-89
2020/12/13 00:10:49;;;;;;;103.03;49.92;;;;;;;-0.79;87.73;101165.66;4995639;23;20507;-93
2020/12/13 00:16:40;;;;;;;83.25;48.83;;;;;;;-0.35;87.40;101209.97;4982469;28;20083;-90
2020/12/13 00:19:13;;;;;;;98.18;51.30;;;;;;;-0.09;87.15;101239.81;4972000;28;20094;-89
2020/12/13 00:22:00;;;;;;;93.05;53.15;;;;;;;-1.44;86.07;101014.91;4947328;28;20031;-90
2020/12/13 00:24:29;;;;;;;101.57;49.28;;;;;;;-1.01;85.32;101074.69;4950955;28;20488;-91
2020/12/13 00:26:56;;;;;;;101.65;51.25;;;;;;;-0.64;85.82;101163.16;4950635;28;20040;-92
2020/12/13 00:29:23;;;;;;;94.72;48.22;;;;;;;-0.73;86.01;101153.25;4946177;28;20061;-90
2020/12/13 00:31:51;;;;;;;93.65;51.88;;;;;;;-1.28;86.66;101080.22;4947631;28;20118;-92
2020/12/13 00:34:18;;;;;;;93.13;50.72;;;;;;;-0.88;86.59;101134.03;4947607;28;20060;-90
2020/12/13 00:36:49;;;;;;;98.75;53.25;;;;;;;-0.10;86.80;101261.75;4947845;28;20091;-91
2020/12/13 00:39:16;;;;;;;93.70;50.78;;;;;;;-0.92;85.68;101119.03;4947184;28;20433;-91
2020/12/13 00:41:50;;;;;;;91.70;51.58;;;;;;;-0.97;85.95;101095.06;4945164;28;20074;-92
2020/12/13 00:44:17;;;;;;;92.22;48.53;;;;;;;-1.12;84.49;101041.34;4950121;28;20046;-90
2020/12/13 00:46:46;;;;;;;86.10;49.40;;;;;;;-0.28;83.10;101181.09;4947952;28;20027;-92
2020/12/13 00:49:14;;;;;;;91.70;48.42;;;;;;;-1.20;83.64;101026.91;4947000;28;20042;-91
2020/12/13 00:51:41;;;;;;;89.05;49.42;;;;;;;-0.73;83.96;101099.72;4968686;28;20054;-90
2020/12/13 00:54:08;;;;;;;73.93;42.20;;;;;;;-0.97;84.03;101078.75;4943259;28;20015;-92
2020/12/13 00:56:37;;;;;;;80.18;44.03;;;;;;;0.07;84.00;101252.56;4948537;28;20029;-92
2020/12/13 00:59:04;;;;;;;85.03;47.97;;;;;;;0.17;84.52;101246.13;4951528;28;20027;-93
2020/12/13 01:01:31;;;;;;;86.50;49.03;;;;;;;0.29;83.84;101258.38;4942206;28;20034;-93
2020/12/13 01:03:58;;;;;;;84.53;49.20;;;;;;;-0.81;83.64;101079.81;4943721;28;20031;-93
2020/12/13 01:06:26;;;;;;;82.18;46.35;;;;;;;0.21;83.63;101228.44;4961620;28;20116;-89
2020/12/13 01:08:56;;;;;;;88.60;49.00;;;;;;;-0.83;83.53;101061.81;4974586;28;20129;-90
2020/12/13 01:11:27;;;;;;;94.63;48.35;;;;;;;-0.13;82.82;101164.09;4951354;28;20035;-92
2020/12/13 01:13:55;;;;;;;83.45;46.65;;;;;;;-0.27;83.52;101147.41;4946097;28;20089;-91
2020/12/13 01:16:24;;;;;;;88.32;46.20;;;;;;;0.30;83.25;101227.41;4943158;29;20505;-91
2020/12/13 01:19:48;;;;;;;82.63;42.40;;;;;;;-0.21;83.25;101152.19;4959592;28;20580;-89
2020/12/13 01:22:32;;;;;;;81.13;45.78;;;;;;;-0.15;83.13;101131.59;4957098;28;20039;-90
2020/12/13 01:27:58;;;;;;;95.75;50.53;;;;;;;-0.34;83.24;101062.03;4964157;28;20118;-92
2020/12/13 01:30:25;;;;;;;98.45;49.80;;;;;;;0.19;82.94;101140.59;4946272;28;20030;-92
2020/12/13 01:32:51;;;;;;;97.18;49.30;;;;;;;-0.80;82.45;100989.94;4945221;28;20015;-92
2020/12/13 01:35:18;;;;;;;93.97;50.63;;;;;;;0.00;83.48;101159.00;4945748;28;20031;-93
2020/12/13 01:37:45;;;;;;;90.20;51.90;;;;;;;-0.50;83.66;101054.69;4942673;28;20038;-93
2020/12/13 01:40:23;;;;;;;96.65;54.00;;;;;;;0.39;84.51;101222.81;4948866;28;20031;-92
2020/12/13 01:42:50;;;;;;;99.80;56.28;;;;;;;0.20;83.91;101186.75;4959565;28;20102;-93
2020/12/13 01:45:18;;;;;;;105.65;56.70;;;;;;;-1.08;83.59;100960.34;4944178;28;20034;-91
2020/12/13 01:47:49;;;;;;;104.10;55.60;;;;;;;-0.64;83.46;101038.06;4944525;28;20026;-92
2020/12/13 01:53:13;;;;;;;107.45;55.40;;;;;;;0.56;84.72;101223.66;4963976;28;20029;-93
2020/12/13 01:55:49;;;;;;;99.30;49.40;;;;;;;0.01;84.79;101138.06;4946729;28;20046;-93
2020/12/13 01:58:32;;;;;;;100.22;57.85;;;;;;;0.55;85.21;101189.25;4962025;28;20037;-95
2020/12/13 02:01:01;;;;;;;103.53;56.72;;;;;;;-0.49;86.28;101040.94;4946647;28;20035;-94
2020/12/13 02:03:58;;;;;;;104.43;55.53;;;;;;;-0.70;86.51;101028.69;4940132;28;20023;-95
2020/12/13 02:06:33;;;;;;;98.68;51.72;;;;;;;0.06;87.17;101135.69;4952570;28;20050;-93
2020/12/13 02:09:36;;;;;;;90.45;44.63;;;;;;;-0.64;87.45;101024.47;4969758;28;20055;-95
2020/12/13 02:12:07;;;;;;;110.00;59.00;;;;;;;0.26;86.62;101101.59;4960999;28;20139;-96
2020/12/13 02:14:38;;;;;;;99.57;59.40;;;;;;;-0.01;86.66;101070.16;4953001;28;20031;-92
2020/12/13 02:17:06;;;;;;;95.10;53.47;;;;;;;0.49;87.16;101149.06;4963814;28;20038;-92
2020/12/13 02:19:49;;;;;;;;;;;;;;;0.53;86.77;101136.78;4964452;28;20055;-89
2020/12/13 02:22:16;;;;;;;96.80;50.58;;;;;;;0.09;86.31;101053.66;4948456;28;19918;-91
2020/12/13 02:24:43;;;;;;;107.22;58.22;;;;;;;-0.12;85.91;100988.88;4955779;28;20031;-95
2020/12/13 02:27:12;;;;;;;110.40;61.85;;;;;;;0.70;86.11;101102.16;4956373;28;20035;-94
2020/12/13 02:29:38;;;;;;;113.43;60.00;;;;;;;0.13;85.37;100982.31;4949337;28;20382;-92
2020/12/13 02:32:06;;;;;;;101.25;58.67;;;;;;;0.15;85.02;100954.06;4964793;28;20027;-89
2020/12/13 02:34:33;;;;;;;99.20;59.20;;;;;;;0.72;84.68;101063.84;4949914;28;20035;-90
2020/12/13 02:37:00;;;;;;;106.20;56.85;;;;;;;0.29;84.61;100958.78;4946449;28;20130;-88
2020/12/13 02:39:27;;;;;;;103.72;58.28;;;;;;;1.25;83.50;101044.13;4941929;28;20082;-87
2020/12/13 02:42:03;;;;;;;107.75;59.08;;;;;;;1.07;83.48;101004.38;4943800;28;20037;-89
2020/12/13 02:44:30;;;;;;;97.00;58.42;;;;;;;1.90;83.28;101104.72;4951132;28;20054;-83
2020/12/13 02:46:57;;;;;;;94.38;57.15;;;;;;;1.46;82.73;101060.69;4946851;28;20406;-89
2020/12/13 02:49:24;;;;;;;101.95;61.42;;;;;;;1.05;83.27;100987.31;4943048;28;20043;-86
2020/12/13 02:51:51;;;;;;;117.38;61.10;;;;;;;2.02;83.36;101097.75;4948771;28;20038;-89
2020/12/13 02:54:18;;;;;;;104.57;59.08;;;;;;;1.87;81.94;101034.06;4949475;28;20023;-86
2020/12/13 02:56:45;;;;;;;99.18;59.08;;;;;;;1.49;82.08;100967.53;4950694;28;20035;-83
2020/12/13 02:59:12;;;;;;;101.80;60.92;;;;;;;2.17;81.36;101070.47;4954626;28;20078;-87
2020/12/13 03:01:39;;;;;;;98.70;57.55;;;;;;;1.69;80.87;100961.56;4947608;28;21991;-85
2020/12/13 03:04:06;;;;;;;97.25;59.15;;;;;;;1.77;81.37;100996.09;4950106;28;20041;-86
2020/12/13 03:06:33;;;;;;;103.78;58.17;;;;;;;1.10;80.84;100881.28;4951724;28;20023;-88
2020/12/13 03:09:00;;;;;;;96.65;57.88;;;;;;;2.03;80.90;101033.06;4944263;28;20098;-86
2020/12/13 03:11:27;;;;;;;90.75;54.88;;;;;;;0.67;80.61;100806.31;4945823;28;20070;-92
2020/12/13 03:13:54;;;;;;;95.85;56.33;;;;;;;2.60;80.53;101071.72;4951578;28;20113;-89
2020/12/13 03:16:21;;;;;;;88.18;55.65;;;;;;;1.90;81.25;101066.47;4949529;28;20121;-88
2020/12/13 03:18:48;;;;;;;80.45;50.47;;;;;;;1.89;83.16;101168.53;4945427;28;20027;-89
2020/12/13 03:21:15;;;;;;;92.78;56.08;;;;;;;1.61;84.81;101177.25;4949042;28;20031;-91
2020/12/13 03:24:00;;;;;;;103.28;62.75;;;;;;;1.08;85.00;101046.97;4948350;28;20019;-90
2020/12/13 03:26:27;;;;;;;102.20;60.25;;;;;;;1.04;84.79;100955.63;4961769;28;20035;-88
2020/12/13 03:28:54;;;;;;;100.63;62.15;;;;;;;2.07;84.10;101090.91;4951435;28;20019;-88
2020/12/13 03:31:21;;;;;;;89.72;59.00;;;;;;;2.32;84.15;101127.88;4944996;28;20046;-86
2020/12/13 03:33:48;;;;;;;100.60;62.15;;;;;;;1.46;83.69;101049.78;4949219;28;20042;-87
2020/12/13 03:36:15;;;;;;;100.70;63.25;;;;;;;1.56;85.07;101095.06;4947173;28;20436;-86
2020/12/13 03:38:42;;;;;;;103.00;63.05;;;;;;;1.11;85.01;101029.41;4949565;28;20035;-87
2020/12/13 03:41:09;;;;;;;110.68;63.72;;;;;;;1.60;84.64;101090.97;4944501;28;20026;-86
2020/12/13 03:43:36;;;;;;;108.13;60.20;;;;;;;1.15;85.34;101050.69;4951172;28;20030;-89
2020/12/13 03:46:03;;;;;;;86.45;48.35;;;;;;;0.71;84.66;101002.19;4943482;28;20394;-91
2020/12/13 03:48:30;;;;;;;111.85;65.88;;;;;;;0.54;85.42;100983.19;4953339;28;20050;-91
2020/12/13 03:50:57;;;;;;;79.80;48.45;;;;;;;1.64;84.31;101220.56;4952143;28;20169;-89
2020/12/13 03:53:24;;;;;;;95.93;53.58;;;;;;;0.54;84.60;101106.66;4960454;28;20031;-90
2020/12/13 03:55:51;;;;;;;78.53;44.88;;;;;;;-0.60;84.55;100984.19;4961877;28;20078;-88
2020/12/13 03:58:17;;;;;;;79.60;45.22;;;;;;;-1.01;84.75;100958.66;4949569;28;20046;-92
2020/12/13 04:00:46;;;;;;;97.35;51.40;;;;;;;-0.29;84.00;101122.25;4969505;28;20039;-87
2020/12/13 04:03:14;;;;;;;97.65;52.35;;;;;;;0.03;83.98;101158.66;4970709;28;20031;-88
2020/12/13 04:05:41;;;;;;;75.20;45.53;;;;;;;-1.28;83.36;100970.66;4950186;28;20050;-88
2020/12/13 04:08:25;;;;;;;61.45;39.30;;;;;;;-1.65;82.11;100994.50;4956376;28;20034;-91
2020/12/13 04:11:37;;;;;;;54.15;31.23;;;;;;;-0.47;81.38;101169.47;4968353;28;21288;-91
2020/12/13 04:14:09;;;;;;;43.58;23.55;;;;;;;-0.58;82.02;101169.81;4912271;29;20485;-92
2020/12/13 04:16:49;;;;;;;53.10;32.95;;;;;;;-0.01;81.28;101266.19;4955617;29;20031;-95
2020/12/13 04:19:16;;;;;;;48.35;28.67;;;;;;;-0.65;80.15;101171.47;4941848;29;20485;-95
2020/12/13 04:21:44;;;;;;;47.22;28.83;;;;;;;-0.59;79.86;101242.38;4952590;28;20103;-96
2020/12/13 04:36:39;;;;;;;45.70;25.65;;;;;;;-0.50;78.72;101322.16;4975387;28;20198;-88
2020/12/13 04:39:06;;;;;;;38.45;23.75;;;;;;;-0.63;77.32;101283.66;4937238;29;20966;-90
2020/12/13 04:44:24;;;;;;;45.05;23.33;;;;;;;-0.47;77.74;101305.50;4953550;28;20038;-91
2020/12/13 05:00:18;;;;;;;26.45;15.75;;;;;;;-3.22;75.07;100943.59;5867250;23;20591;-93
2020/12/13 05:32:20;;;;;;;41.85;21.27;;;;;;;-0.25;69.37;101360.34;5166512;23;20074;-96
2020/12/13 05:34:51;;;;;;;27.92;15.23;;;;;;;-1.68;68.76;101185.72;4949838;29;20039;-96
2020/12/13 05:39:56;;;;;;;29.20;18.33;;;;;;;-3.21;69.69;100917.38;5151758;23;20065;-96
2020/12/13 05:43:06;;;;;;;33.00;18.95;;;;;;;-2.66;68.81;100989.50;4967393;28;20161;-96
2020/12/13 05:46:31;;;;;;;28.40;17.60;;;;;;;-0.15;68.78;101355.66;4962014;28;20060;-96
2020/12/13 06:03:38;;;;;;;29.55;14.63;;;;;;;0.06;67.47;101414.25;5149045;23;19958;-94
2020/12/13 06:25:39;;;;;;;30.48;15.15;;;;;;;-1.61;64.16;101112.63;6013819;23;20022;-96
2020/12/13 06:28:09;;;;;;;29.77;15.70;;;;;;;-0.48;62.04;101295.63;4964988;23;20133;-96
2020/12/13 06:30:37;;;;;;;33.05;13.63;;;;;;;-1.68;62.24;101123.28;4925358;29;20028;-95
2020/12/13 06:33:04;;;;;;;28.42;15.00;;;;;;;-0.69;61.62;101266.97;4906341;29;20036;-93
2020/12/13 06:35:36;;;;;;;23.63;13.90;;;;;;;0.47;61.99;101459.00;4903004;29;20122;-91
2020/12/13 06:38:16;;;;;;;31.70;14.95;;;;;;;0.06;61.95;101397.91;4899757;29;20037;-94
2020/12/13 06:40:43;;;;;;;32.30;15.95;;;;;;;-0.18;60.96;101385.91;4885120;29;20143;-96
2020/12/13 06:43:10;;;;;;;31.42;15.95;;;;;;;-0.14;60.66;101413.66;4885278;29;20040;-95
2020/12/13 06:45:37;;;;;;;39.58;17.67;;;;;;;0.54;59.87;101487.31;4888949;29;20044;-93
2020/12/13 06:48:04;;;;;;;29.85;15.82;;;;;;;-0.12;60.56;101394.44;4906890;29;20071;-93
2020/12/13 06:50:31;;;;;;;26.67;16.60;;;;;;;0.49;60.35;101473.31;4897412;29;20028;-96
2020/12/13 06:52:58;;;;;;;29.58;13.82;;;;;;;-0.07;59.20;101360.25;4887587;29;20029;-95
2020/12/13 06:55:35;;;;;;;48.05;17.30;;;;;;;0.54;59.66;101499.03;4904497;29;20029;-95
2020/12/13 06:58:04;;;;;;;44.95;21.17;;;;;;;0.00;59.94;101404.03;4882892;29;20040;-93
2020/12/13 07:00:50;;;;;;;29.85;15.93;;;;;;;-0.78;60.46;101297.88;4898209;29;20040;-96
2020/12/13 07:03:29;;;;;;;28.25;15.27;;;;;;;0.47;60.88;101516.22;4884338;29;20116;-93
2020/12/13 07:05:58;;;;;;;32.92;17.67;;;;;;;-0.15;60.88;101393.75;4883092;29;20099;-93
2020/12/13 07:11:04;;;;;;;35.47;18.08;;;;;;;0.28;60.90;101529.06;5043823;23;20060;-94
2020/12/13 07:13:50;;;;;;;29.67;12.38;;;;;;;0.43;60.08;101531.19;4938645;28;20071;-90
2020/12/13 07:16:34;;;;;;;38.03;15.77;;;;;;;0.31;60.55;101536.94;4932720;29;20081;-93
2020/12/13 07:19:07;;;;;;;35.53;15.23;;;;;;;-0.12;61.26;101519.66;4938559;29;20115;-92
2020/12/13 07:49:33;;;;;;;24.98;12.75;;;;;;;-0.81;61.36;101634.50;5334122;23;20136;-82
2020/12/13 08:09:28;;;;;;;14.40;9.00;;;;;;;-3.60;60.03;101267.66;4972050;28;20113;-95
2020/12/13 08:17:24;;;;;;;14.30;8.35;;;;;;;-2.77;59.38;101378.19;4940656;29;20050;-94
2020/12/13 08:19:58;;;;;;;12.57;7.90;;;;;;;-1.06;59.96;101724.81;4928542;29;20036;-95
2020/12/13 08:25:14;;;;;;;17.40;7.82;;;;;;;-3.06;60.14;101340.28;5129771;23;20421;-94
2020/12/13 08:27:42;;;;;;;17.65;9.88;;;;;;;-1.58;59.21;101606.56;4956615;28;20118;-94
2020/12/13 08:30:09;;;;;;;18.95;8.30;;;;;;;-1.64;57.57;101585.44;4961946;28;20436;-96
2020/12/13 08:49:38;;;;;;;15.80;9.48;;;;;;;-2.68;61.63;101570.78;5159548;23;20055;-95
2020/12/13 09:01:13;;;;;;;17.23;9.20;;;;;;;-3.55;60.86;101427.81;4948812;23;20067;-95
2020/12/13 09:08:08;;;;;;;22.98;12.27;;;;;;;-1.61;60.45;101763.53;4934085;29;20038;-94
2020/12/13 09:37:20;;;;;;;26.42;12.80;;;;;;;-2.59;60.89;101745.28;4971223;23;20062;-93
2020/12/13 12:30:06;;;;;;;13.63;7.18;;;;;;;-4.01;48.99;102065.88;5442947;23;20069;-87
2020/12/13 14:04:24;;;;;;;12.00;4.82;;;;;;;-6.11;45.99;102094.84;5057727;23;20042;-84
2020/12/13 14:11:21;;;;;;;15.23;5.80;;;;;;;-5.33;46.67;102214.38;4968470;28;20100;-84
2020/12/13 14:14:42;;;;;;;14.45;6.18;;;;;;;-5.29;46.71;102220.44;4960465;28;20050;-84
2020/12/13 14:18:12;;;;;;;16.70;5.63;;;;;;;-5.18;46.78;102236.72;4962398;28;20044;-85
2020/12/13 14:21:04;;;;;;;16.38;5.63;;;;;;;-7.69;46.99;101867.56;4959637;28;20023;-84
2020/12/13 14:26:36;;;;;;;15.68;5.50;;;;;;;-6.84;45.97;101930.91;5007248;23;20060;-84
2020/12/13 14:29:43;;;;;;;17.58;5.18;;;;;;;-5.15;46.05;102270.75;4891257;29;20077;-85
2020/12/13 14:32:44;;;;;;;13.55;5.28;;;;;;;-5.60;46.03;102244.19;4914499;29;20054;-85
2020/12/13 14:35:59;;;;;;;14.10;4.70;;;;;;;-7.28;45.66;101959.91;4914066;29;20064;-85
2020/12/13 14:39:18;;;;;;;13.02;5.60;;;;;;;-8.67;46.11;101771.84;4896302;29;20068;-84
2020/12/13 14:42:04;;;;;;;10.30;5.70;;;;;;;-8.90;45.66;101724.97;4918836;29;20049;-84
2020/12/13 14:45:26;;;;;;;6.93;3.72;;;;;;;-5.34;44.60;102265.78;4923575;29;20029;-85
2020/12/13 14:48:20;;;;;;;10.43;4.05;;;;;;;-5.55;44.45;102280.69;4919150;29;20052;-84
2020/12/13 14:51:21;;;;;;;19.00;5.43;;;;;;;-5.47;44.77;102288.22;4892091;29;20065;-84
2020/12/13 14:54:17;;;;;;;14.52;6.20;;;;;;;-8.56;45.09;101819.47;5339707;23;20108;-85
2020/12/13 14:57:23;;;;;;;16.77;4.18;;;;;;;-5.39;44.99;102318.28;4942238;29;20043;-85
2020/12/13 15:00:27;;;;;;;12.18;3.97;;;;;;;-8.64;45.07;101852.19;4941652;28;20044;-84
2020/12/13 15:03:27;;;;;;;13.55;5.38;;;;;;;-7.68;44.19;101968.78;4936855;28;20047;-84
2020/12/13 15:06:14;;;;;;;10.57;5.60;;;;;;;-5.63;43.05;102316.28;4940814;28;20056;-85
2020/12/13 15:09:24;;;;;;;6.30;3.20;;;;;;;-5.60;40.94;102327.84;4929765;28;20107;-84
2020/12/13 15:12:26;;;;;;;23.70;5.15;;;;;;;-5.77;41.42;102306.44;4907183;29;20053;-84
2020/12/13 15:18:51;;;;;;;9.35;4.88;;;;;;;-6.90;41.19;102099.19;4919299;29;20159;-84
2020/12/13 15:22:05;;;;;;;9.50;3.50;;;;;;;-5.54;41.44;102313.91;4922634;29;20040;-86
2020/12/13 15:24:57;;;;;;;9.63;4.57;;;;;;;-6.88;41.00;102115.25;4941022;29;20044;-84
2020/12/13 15:27:51;;;;;;;13.98;5.97;;;;;;;-5.66;42.21;102303.00;4936910;29;20044;-84
2020/12/13 15:30:22;;;;;;;8.77;4.93;;;;;;;-6.35;42.52;102179.13;4921149;29;20048;-85
2020/12/13 15:33:07;;;;;;;10.10;4.43;;;;;;;-7.66;42.83;102004.53;4939308;29;20044;-83
2020/12/13 15:38:22;;;;;;;18.15;6.32;;;;;;;-7.61;42.83;101966.59;4962973;23;20058;-85
2020/12/13 15:40:59;;;;;;;16.15;5.60;;;;;;;-8.89;42.74;101800.03;4938599;28;20051;-84
2020/12/13 15:43:32;;;;;;;6.35;4.70;;;;;;;-7.32;41.28;102061.53;4956441;28;20051;-84
2020/12/13 15:46:09;;;;;;;23.38;7.03;;;;;;;-8.77;41.99;101819.00;4959170;28;20083;-84
2020/12/13 15:48:43;;;;;;;10.38;5.28;;;;;;;-7.62;41.92;101971.09;4960120;28;20055;-85
2020/12/13 15:51:27;;;;;;;34.20;5.60;;;;;;;-7.63;41.83;101998.06;4952990;29;20038;-84
2020/12/13 15:54:05;;;;;;;13.07;4.45;;;;;;;-8.15;41.40;101895.66;4959314;28;20027;-85
2020/12/13 15:57:25;;;;;;;7.45;2.97;;;;;;;-8.06;40.21;101988.25;4934970;29;20032;-84
2020/12/13 16:00:10;;;;;;;14.13;5.28;;;;;;;-5.95;41.26;102324.72;4910665;29;20051;-85
2020/12/13 16:02:52;;;;;;;9.18;4.03;;;;;;;-6.65;41.85;102183.75;4959541;28;20023;-84
2020/12/13 16:05:58;;;;;;;18.95;6.80;;;;;;;-6.83;41.69;102104.16;4940427;28;20028;-85
2020/12/13 16:08:43;;;;;;;11.75;4.68;;;;;;;-5.75;41.86;102325.22;4947913;28;20068;-84
2020/12/13 16:11:46;;;;;;;15.35;6.00;;;;;;;-6.46;42.44;102223.81;4938093;29;20074;-84
2020/12/13 16:14:53;;;;;;;11.68;4.93;;;;;;;-8.30;42.91;101902.88;4941034;28;20023;-83
2020/12/13 16:17:25;;;;;;;11.40;4.75;;;;;;;-8.50;44.30;101896.94;4938252;28;20071;-84
2020/12/13 16:20:37;;;;;;;11.43;5.30;;;;;;;-8.97;43.61;101791.63;4939812;28;20036;-84
2020/12/13 16:23:31;;;;;;;11.23;5.82;;;;;;;-5.49;43.36;102290.19;4935627;28;20095;-85
2020/12/13 16:26:10;;;;;;;20.90;7.03;;;;;;;-8.88;43.11;101725.72;4896940;29;20063;-86
2020/12/13 16:29:13;;;;;;;14.80;5.68;;;;;;;-8.26;43.23;101842.63;4905208;29;20080;-84
2020/12/13 16:32:13;;;;;;;21.08;5.97;;;;;;;-5.50;44.64;102304.66;4933174;29;20056;-85
2020/12/13 16:35:30;;;;;;;6.57;4.75;;;;;;;-5.54;45.02;102330.97;4936335;29;20057;-85
2020/12/13 16:39:03;;;;;;;15.55;5.47;;;;;;;-6.05;46.48;102331.72;4950459;28;20036;-84
2020/12/13 16:42:19;;;;;;;16.20;5.78;;;;;;;-6.26;47.44;102334.84;4937383;28;20067;-84
2020/12/13 16:45:01;;;;;;;15.23;7.30;;;;;;;-8.45;46.93;101953.91;4973035;28;20043;-83
2020/12/13 16:51:34;;;;;;;11.25;5.90;;;;;;;-6.09;47.67;102367.94;4966371;28;20103;-84
2020/12/13 16:54:40;;;;;;;20.98;6.57;;;;;;;-9.25;48.39;101821.03;4977850;28;20011;-84
2020/12/13 16:57:41;;;;;;;10.63;4.75;;;;;;;-8.00;48.03;101995.94;4973172;28;20177;-84
2020/12/13 17:01:05;;;;;;;14.85;6.15;;;;;;;-5.98;48.90;102343.81;4977967;28;20016;-84
2020/12/13 17:03:55;;;;;;;14.55;4.95;;;;;;;-8.00;48.84;102049.69;4971435;28;20042;-84
2020/12/13 17:06:42;;;;;;;12.10;6.07;;;;;;;-9.21;49.17;101849.38;4969620;28;20067;-84
2020/12/13 17:09:26;;;;;;;32.25;6.95;;;;;;;-8.14;48.89;102054.09;4965906;28;20023;-85
2020/12/13 17:12:05;;;;;;;18.08;7.13;;;;;;;-5.93;49.08;102363.22;4978297;28;20039;-84
2020/12/13 17:14:45;;;;;;;20.38;6.05;;;;;;;-7.10;49.10;102181.28;4972181;28;20043;-84
2020/12/13 17:17:26;;;;;;;12.35;5.22;;;;;;;-6.09;49.61;102416.47;4971884;28;20055;-84
2020/12/13 17:20:26;;;;;;;13.23;5.22;;;;;;;-6.20;49.49;102374.91;4977236;28;20043;-84
2020/12/13 17:23:22;;;;;;;33.60;6.60;;;;;;;-8.17;49.13;102042.69;4971257;28;20073;-84
2020/12/13 17:26:40;;;;;;;14.48;6.18;;;;;;;-6.38;49.81;102427.28;4975640;28;20054;-84
2020/12/13 17:29:25;;;;;;;14.85;5.93;;;;;;;-6.15;49.83;102422.25;4974503;28;20054;-84
2020/12/13 17:32:04;;;;;;;20.98;8.18;;;;;;;-5.94;48.70;102407.34;4975506;28;20035;-84
2020/12/13 17:34:38;;;;;;;15.38;7.38;;;;;;;-8.36;49.41;102076.06;4972853;28;20043;-84
2020/12/13 17:37:19;;;;;;;21.70;4.78;;;;;;;-8.05;49.64;102081.38;4966004;28;20028;-85
2020/12/13 17:40:15;;;;;;;18.67;7.88;;;;;;;-6.15;49.77;102412.34;4952414;29;20076;-84
2020/12/13 17:43:02;;;;;;;8.98;5.15;;;;;;;-9.47;49.44;101901.91;4955502;28;20075;-84
2020/12/13 17:46:20;;;;;;;17.67;6.18;;;;;;;-8.38;50.04;102108.41;4942915;28;20030;-85
2020/12/13 17:49:14;;;;;;;13.55;7.00;;;;;;;-6.54;50.73;102439.03;4952529;28;20060;-84
2020/12/13 17:57:58;;;;;;;19.27;7.07;;;;;;;-9.41;51.28;101997.22;4953377;28;20051;-84
2020/12/13 18:00:50;;;;;;;15.77;4.80;;;;;;;-7.43;50.73;102308.94;4961246;28;20032;-85
2020/12/13 18:03:53;;;;;;;12.18;5.22;;;;;;;-8.04;51.52;102201.41;4949074;29;20020;-84
2020/12/13 18:06:34;;;;;;;10.93;4.90;;;;;;;-8.79;51.47;102090.28;4958371;28;20039;-83
2020/12/13 18:09:12;;;;;;;11.50;5.63;;;;;;;-9.70;51.12;101932.75;4941731;29;20048;-84
2020/12/13 18:12:08;;;;;;;34.72;8.55;;;;;;;-6.32;51.50;102429.59;4945096;29;20019;-84
2020/12/13 18:15:34;;;;;;;10.60;5.07;;;;;;;-10.28;50.36;101842.19;4920787;28;20048;-84
2020/12/13 18:22:04;;;;;;;16.50;6.22;;;;;;;-6.97;51.63;102420.16;4942270;28;20031;-85
2020/12/13 18:25:33;;;;;;;15.93;6.18;;;;;;;-8.24;50.37;102157.75;4850082;29;20073;-86
2020/12/13 18:28:31;;;;;;;18.48;6.40;;;;;;;-9.17;51.07;102028.97;4863619;29;20026;-84
2020/12/13 18:31:45;;;;;;;11.45;5.40;;;;;;;-6.22;49.51;102500.00;4923596;29;20044;-84
2020/12/13 18:34:23;;;;;;;13.90;6.13;;;;;;;-6.17;49.55;102473.63;4938841;28;20111;-84
2020/12/13 18:37:30;;;;;;;9.40;4.47;;;;;;;-7.30;49.26;102274.91;4911315;28;20128;-84
2020/12/13 18:40:20;;;;;;;29.23;9.50;;;;;;;-9.79;49.57;101900.16;4904577;29;20055;-83
2020/12/13 18:49:29;;;;;;;22.40;9.10;;;;;;;-8.97;51.21;102194.22;4932223;29;20056;-83
2020/12/13 18:52:40;;;;;;;11.93;5.82;;;;;;;-8.16;50.37;102235.22;4937049;29;20086;-85
2020/12/13 18:55:59;;;;;;;14.00;5.80;;;;;;;-6.47;48.95;102488.06;4954024;28;20051;-83
2020/12/13 18:59:33;;;;;;;13.55;6.35;;;;;;;-6.80;49.69;102492.72;4955160;28;20071;-83
2020/12/13 19:03:13;;;;;;;14.05;7.32;;;;;;;-6.64;49.41;102491.78;4958884;28;20649;-84
2020/12/13 19:05:48;;;;;;;11.55;5.63;;;;;;;-9.31;50.02;102033.31;4957991;28;20055;-85
2020/12/13 19:09:17;;;;;;;23.67;6.00;;;;;;;-9.82;49.38;101945.88;4960832;28;20024;-85
2020/12/13 19:12:38;;;;;;;10.20;6.47;;;;;;;-10.17;50.56;101954.94;4945557;28;20028;-84
2020/12/13 19:19:31;;;;;;;13.88;6.00;;;;;;;-6.96;50.17;102473.91;4960820;28;20052;-84
2020/12/13 19:22:23;;;;;;;9.68;5.45;;;;;;;-10.18;50.07;101949.66;4849504;29;20034;-85
2020/12/13 19:25:51;;;;;;;14.80;6.00;;;;;;;-7.14;50.66;102467.78;4878063;29;20034;-84
2020/12/13 19:28:55;;;;;;;14.23;5.80;;;;;;;-6.92;51.24;102461.13;4893405;29;20029;-85
2020/12/13 19:31:58;;;;;;;11.02;5.15;;;;;;;-6.92;51.41;102453.91;4883149;29;20045;-84
2020/12/13 19:34:47;;;;;;;;;;;;;;;-7.06;50.68;102462.84;4888689;29;20017;-84
2020/12/13 19:37:45;;;;;;;12.95;6.18;;;;;;;-9.29;51.53;102108.34;4894645;29;19966;-84
2020/12/13 19:43:41;;;;;;;7.07;4.85;;;;;;;-7.12;51.67;102479.34;5138558;23;20052;-84
2020/12/13 19:47:21;;;;;;;13.32;7.45;;;;;;;-6.96;51.41;102470.34;4911441;29;20033;-84
2020/12/13 19:50:05;;;;;;;18.73;7.95;;;;;;;-9.55;51.80;102116.00;4896841;29;20048;-84
2020/12/13 19:53:20;;;;;;;12.73;6.43;;;;;;;-8.00;51.01;102373.19;4923350;29;20029;-85
2020/12/13 19:56:15;;;;;;;19.40;7.93;;;;;;;-8.44;51.04;102278.00;4889319;29;20044;-84
2020/12/13 19:59:29;;;;;;;18.05;5.55;;;;;;;-9.98;50.01;102025.41;4907354;29;20277;-83
2020/12/13 20:02:45;;;;;;;15.02;6.07;;;;;;;-10.79;50.71;101949.38;4910249;29;20028;-84
2020/12/13 20:05:49;;;;;;;11.70;7.18;;;;;;;-10.06;50.33;102018.66;4908997;29;20037;-84
2020/12/13 20:08:43;;;;;;;15.02;7.65;;;;;;;-7.05;49.63;102480.72;4944079;23;20094;-85
2020/12/13 20:11:36;;;;;;;15.90;6.40;;;;;;;-7.26;48.86;102484.69;4926165;28;20048;-83
2020/12/13 20:27:39;;;;;;;;;;;;;;;;;;;;;
2020/12/13 21:02:38;;;;;;;20.48;6.22;;;;;;;-8.32;44.06;102487.84;4942716;28;20064;-83
2020/12/13 21:23:37;;;;;;;9.73;3.92;;;;;;;-10.66;45.98;102153.91;4875323;29;20064;-83
2020/12/13 21:32:22;;;;;;;10.13;5.28;;;;;;;-9.80;46.52;102275.50;4944486;28;20074;-83
2020/12/13 21:51:45;;;;;;;12.05;6.35;;;;;;;-9.58;48.71;102330.69;4944382;28;20055;-83
2020/12/13 22:18:36;;;;;;;15.15;6.90;;;;;;;-9.25;51.36;102438.09;4921060;29;20162;-82
2020/12/13 22:26:35;;;;;;;20.77;7.55;;;;;;;-8.20;51.59;102634.16;4931874;28;20068;-82
2020/12/13 22:29:17;;;;;;;11.65;6.47;;;;;;;-11.47;50.75;102034.75;4925038;29;20052;-83
2020/12/13 22:32:09;;;;;;;25.85;9.10;;;;;;;-11.53;51.15;102045.78;4920199;29;20024;-81
2020/12/13 22:34:53;;;;;;;13.55;7.45;;;;;;;-9.33;52.40;102431.38;4924077;29;20051;-82
2020/12/13 22:37:23;;;;;;;14.90;7.75;;;;;;;-9.83;52.25;102356.94;4921867;29;20123;-83
2020/12/13 22:39:59;;;;;;;21.20;8.23;;;;;;;-10.45;52.36;102267.09;4920922;29;20075;-83
2020/12/13 22:42:29;;;;;;;17.70;7.68;;;;;;;-8.78;52.85;102598.59;4921481;29;20067;-82
2020/12/13 22:45:06;;;;;;;8.80;6.15;;;;;;;-9.59;52.49;102417.47;4926602;29;20028;-82
2020/12/13 22:47:38;;;;;;;16.23;7.78;;;;;;;-9.28;52.55;102483.84;4912484;29;20028;-82
2020/12/13 22:50:11;;;;;;;26.55;9.15;;;;;;;-8.84;52.09;102554.13;4929574;29;20028;-82
2020/12/13 22:52:41;;;;;;;18.67;8.45;;;;;;;-9.31;51.80;102477.75;4916945;29;20095;-81
2020/12/13 22:55:27;;;;;;;18.10;8.18;;;;;;;-8.37;51.14;102617.09;4920265;29;20040;-82
2020/12/13 22:57:54;;;;;;;18.83;7.30;;;;;;;-8.07;51.04;102655.88;4929600;29;20048;-81
2020/12/13 23:00:51;;;;;;;29.38;8.63;;;;;;;-9.16;51.69;102546.75;4931912;29;20040;-82
2020/12/13 23:04:00;;;;;;;17.58;6.68;;;;;;;-8.32;51.80;102652.63;4932733;29;20056;-82
2020/12/13 23:06:35;;;;;;;9.15;4.80;;;;;;;-10.01;51.47;102388.19;4930400;29;20056;-81
2020/12/13 23:09:06;;;;;;;11.77;6.57;;;;;;;-9.21;51.80;102575.66;4929944;29;20032;-82
2020/12/13 23:11:34;;;;;;;13.65;5.95;;;;;;;-8.76;51.81;102632.47;4929933;29;20028;-82